sensor_id;sensor_type;location;lat;lon;timestamp;P1;durP1;ratioP1;P2;durP2;ratioP2
41139;SDS011;26881;48.784;9.192;2022-11-25T00:00:52;11.77;;;5.17;;
41139;SDS011;26881;48.784;9.192;2022-11-25T00:06:15;14.47;;;5.23;;
41139;SDS011;26881;48.784;9.192;2022-11-25T00:11:40;11.73;;;5.00;;
41139;SDS011;26881;48.784;9.192;2022-11-25T00:17:03;13.53;;;5.57;;
41139;SDS011;26881;48.784;9.192;2022-11-25T00:22:24;16.83;;;5.00;;
41139;SDS011;26881;48.784;9.192;2022-11-25T00:27:46;8.73;;;3.90;;
41139;SDS011;26881;48.784;9.192;2022-11-25T00:33:08;10.73;;;4.20;;
41139;SDS011;26881;48.784;9.192;2022-11-25T00:38:30;12.97;;;4.20;;
41139;SDS011;26881;48.784;9.192;2022-11-25T00:43:51;13.03;;;4.47;;
41139;SDS011;26881;48.784;9.192;2022-11-25T00:49:32;10.00;;;4.13;;
41139;SDS011;26881;48.784;9.192;2022-11-25T00:54:54;8.63;;;3.70;;
41139;SDS011;26881;48.784;9.192;2022-11-25T01:00:16;8.43;;;3.60;;
41139;SDS011;26881;48.784;9.192;2022-11-25T01:05:38;13.53;;;4.67;;
41139;SDS011;26881;48.784;9.192;2022-11-25T01:11:00;6.40;;;3.37;;
41139;SDS011;26881;48.784;9.192;2022-11-25T01:16:24;12.40;;;3.90;;
41139;SDS011;26881;48.784;9.192;2022-11-25T01:21:46;10.97;;;3.73;;
41139;SDS011;26881;48.784;9.192;2022-11-25T01:27:08;8.33;;;3.77;;
41139;SDS011;26881;48.784;9.192;2022-11-25T01:32:30;11.00;;;4.50;;
41139;SDS011;26881;48.784;9.192;2022-11-25T01:37:51;10.37;;;4.60;;
41139;SDS011;26881;48.784;9.192;2022-11-25T01:43:13;11.00;;;4.47;;
41139;SDS011;26881;48.784;9.192;2022-11-25T01:48:39;11.43;;;5.93;;
41139;SDS011;26881;48.784;9.192;2022-11-25T01:54:04;9.30;;;5.20;;
41139;SDS011;26881;48.784;9.192;2022-11-25T01:59:30;15.63;;;5.93;;
41139;SDS011;26881;48.784;9.192;2022-11-25T02:04:57;13.50;;;6.07;;
41139;SDS011;26881;48.784;9.192;2022-11-25T02:10:28;14.93;;;5.97;;
41139;SDS011;26881;48.784;9.192;2022-11-25T02:15:52;11.27;;;5.80;;
41139;SDS011;26881;48.784;9.192;2022-11-25T02:21:15;9.80;;;4.90;;
41139;SDS011;26881;48.784;9.192;2022-11-25T02:26:40;14.43;;;5.50;;
41139;SDS011;26881;48.784;9.192;2022-11-25T02:32:02;12.37;;;5.17;;
41139;SDS011;26881;48.784;9.192;2022-11-25T02:37:24;10.23;;;5.00;;
41139;SDS011;26881;48.784;9.192;2022-11-25T02:42:47;12.87;;;5.13;;
41139;SDS011;26881;48.784;9.192;2022-11-25T02:48:10;13.67;;;4.50;;
41139;SDS011;26881;48.784;9.192;2022-11-25T02:53:32;10.13;;;4.90;;
41139;SDS011;26881;48.784;9.192;2022-11-25T02:58:54;13.20;;;4.63;;
41139;SDS011;26881;48.784;9.192;2022-11-25T03:04:16;15.97;;;5.93;;
41139;SDS011;26881;48.784;9.192;2022-11-25T03:09:37;12.73;;;5.73;;
41139;SDS011;26881;48.784;9.192;2022-11-25T03:14:59;12.03;;;5.23;;
41139;SDS011;26881;48.784;9.192;2022-11-25T03:20:21;14.03;;;6.00;;
41139;SDS011;26881;48.784;9.192;2022-11-25T03:25:43;9.53;;;5.63;;
41139;SDS011;26881;48.784;9.192;2022-11-25T03:31:08;13.97;;;6.57;;
41139;SDS011;26881;48.784;9.192;2022-11-25T03:36:31;16.10;;;6.33;;
41139;SDS011;26881;48.784;9.192;2022-11-25T03:41:52;10.93;;;5.93;;
41139;SDS011;26881;48.784;9.192;2022-11-25T03:47:14;11.00;;;5.80;;
41139;SDS011;26881;48.784;9.192;2022-11-25T03:52:36;12.93;;;5.77;;
41139;SDS011;26881;48.784;9.192;2022-11-25T03:57:58;13.63;;;6.50;;
41139;SDS011;26881;48.784;9.192;2022-11-25T04:03:20;9.90;;;5.63;;
41139;SDS011;26881;48.784;9.192;2022-11-25T04:08:42;9.83;;;4.97;;
41139;SDS011;26881;48.784;9.192;2022-11-25T04:14:04;15.70;;;5.00;;
41139;SDS011;26881;48.784;9.192;2022-11-25T04:19:25;10.00;;;4.37;;
41139;SDS011;26881;48.784;9.192;2022-11-25T04:24:47;8.77;;;3.97;;
41139;SDS011;26881;48.784;9.192;2022-11-25T04:30:09;9.40;;;4.53;;
41139;SDS011;26881;48.784;9.192;2022-11-25T04:35:32;6.23;;;4.10;;
41139;SDS011;26881;48.784;9.192;2022-11-25T04:40:54;9.23;;;5.63;;
41139;SDS011;26881;48.784;9.192;2022-11-25T04:46:16;14.43;;;5.93;;
41139;SDS011;26881;48.784;9.192;2022-11-25T04:51:40;12.37;;;5.30;;
41139;SDS011;26881;48.784;9.192;2022-11-25T04:57:01;10.17;;;4.47;;
41139;SDS011;26881;48.784;9.192;2022-11-25T05:02:24;11.20;;;5.63;;
41139;SDS011;26881;48.784;9.192;2022-11-25T05:07:48;13.00;;;5.70;;
41139;SDS011;26881;48.784;9.192;2022-11-25T05:13:10;10.37;;;5.23;;
41139;SDS011;26881;48.784;9.192;2022-11-25T05:18:31;11.43;;;5.30;;
41139;SDS011;26881;48.784;9.192;2022-11-25T05:23:53;9.63;;;5.10;;
41139;SDS011;26881;48.784;9.192;2022-11-25T05:29:16;9.03;;;5.20;;
41139;SDS011;26881;48.784;9.192;2022-11-25T05:34:38;11.70;;;5.67;;
41139;SDS011;26881;48.784;9.192;2022-11-25T05:40:01;14.77;;;5.40;;
41139;SDS011;26881;48.784;9.192;2022-11-25T05:45:24;10.67;;;4.57;;
41139;SDS011;26881;48.784;9.192;2022-11-25T05:50:46;11.03;;;4.57;;
41139;SDS011;26881;48.784;9.192;2022-11-25T05:56:08;13.00;;;5.43;;
41139;SDS011;26881;48.784;9.192;2022-11-25T06:01:31;10.47;;;5.53;;
41139;SDS011;26881;48.784;9.192;2022-11-25T06:06:53;12.10;;;5.70;;
41139;SDS011;26881;48.784;9.192;2022-11-25T06:12:15;14.83;;;6.07;;
41139;SDS011;26881;48.784;9.192;2022-11-25T06:17:37;14.23;;;6.83;;
41139;SDS011;26881;48.784;9.192;2022-11-25T06:22:58;16.20;;;6.80;;
41139;SDS011;26881;48.784;9.192;2022-11-25T06:28:20;11.90;;;5.67;;
41139;SDS011;26881;48.784;9.192;2022-11-25T06:33:44;12.73;;;5.60;;
41139;SDS011;26881;48.784;9.192;2022-11-25T06:39:07;9.53;;;5.33;;
41139;SDS011;26881;48.784;9.192;2022-11-25T06:44:29;9.67;;;5.20;;
41139;SDS011;26881;48.784;9.192;2022-11-25T06:49:51;15.30;;;5.47;;
41139;SDS011;26881;48.784;9.192;2022-11-25T06:55:13;11.07;;;5.23;;
41139;SDS011;26881;48.784;9.192;2022-11-25T07:00:34;14.80;;;5.70;;
41139;SDS011;26881;48.784;9.192;2022-11-25T07:05:57;9.43;;;4.80;;
41139;SDS011;26881;48.784;9.192;2022-11-25T07:11:21;9.80;;;5.07;;
41139;SDS011;26881;48.784;9.192;2022-11-25T07:16:43;10.17;;;5.30;;
41139;SDS011;26881;48.784;9.192;2022-11-25T07:22:06;10.47;;;6.37;;
41139;SDS011;26881;48.784;9.192;2022-11-25T07:27:28;10.10;;;5.90;;
41139;SDS011;26881;48.784;9.192;2022-11-25T07:32:49;14.07;;;6.60;;
41139;SDS011;26881;48.784;9.192;2022-11-25T07:38:11;15.53;;;6.47;;
41139;SDS011;26881;48.784;9.192;2022-11-25T07:43:33;14.07;;;7.30;;
41139;SDS011;26881;48.784;9.192;2022-11-25T07:48:56;12.27;;;6.83;;
41139;SDS011;26881;48.784;9.192;2022-11-25T07:54:20;11.73;;;6.43;;
41139;SDS011;26881;48.784;9.192;2022-11-25T07:59:42;10.80;;;6.47;;
41139;SDS011;26881;48.784;9.192;2022-11-25T08:05:05;16.33;;;6.53;;
41139;SDS011;26881;48.784;9.192;2022-11-25T08:10:27;15.33;;;7.00;;
41139;SDS011;26881;48.784;9.192;2022-11-25T08:15:48;14.57;;;7.07;;
41139;SDS011;26881;48.784;9.192;2022-11-25T08:21:11;16.77;;;7.37;;
41139;SDS011;26881;48.784;9.192;2022-11-25T08:26:34;14.00;;;6.53;;
41139;SDS011;26881;48.784;9.192;2022-11-25T08:31:58;12.53;;;4.90;;
41139;SDS011;26881;48.784;9.192;2022-11-25T08:37:20;7.83;;;3.90;;
41139;SDS011;26881;48.784;9.192;2022-11-25T08:42:41;6.93;;;4.00;;
41139;SDS011;26881;48.784;9.192;2022-11-25T08:48:03;10.73;;;4.23;;
41139;SDS011;26881;48.784;9.192;2022-11-25T08:53:25;15.13;;;5.50;;
41139;SDS011;26881;48.784;9.192;2022-11-25T08:58:47;10.80;;;5.20;;
41139;SDS011;26881;48.784;9.192;2022-11-25T09:04:10;10.37;;;4.90;;
41139;SDS011;26881;48.784;9.192;2022-11-25T09:09:34;9.93;;;4.30;;
41139;SDS011;26881;48.784;9.192;2022-11-25T09:14:57;13.67;;;5.50;;
41139;SDS011;26881;48.784;9.192;2022-11-25T09:20:19;12.90;;;6.57;;
41139;SDS011;26881;48.784;9.192;2022-11-25T09:25:41;16.70;;;7.40;;
41139;SDS011;26881;48.784;9.192;2022-11-25T09:31:06;17.17;;;7.40;;
41139;SDS011;26881;48.784;9.192;2022-11-25T09:36:29;16.20;;;9.77;;
41139;SDS011;26881;48.784;9.192;2022-11-25T09:47:53;20.53;;;8.10;;
41139;SDS011;26881;48.784;9.192;2022-11-25T09:58:59;16.37;;;8.17;;
41139;SDS011;26881;48.784;9.192;2022-11-25T10:04:31;12.90;;;7.50;;
41139;SDS011;26881;48.784;9.192;2022-11-25T10:09:58;15.80;;;7.23;;
41139;SDS011;26881;48.784;9.192;2022-11-25T10:15:28;12.83;;;6.97;;
41139;SDS011;26881;48.784;9.192;2022-11-25T10:20:55;14.73;;;7.40;;
41139;SDS011;26881;48.784;9.192;2022-11-25T10:26:19;14.97;;;7.33;;
41139;SDS011;26881;48.784;9.192;2022-11-25T10:31:43;12.43;;;6.80;;
41139;SDS011;26881;48.784;9.192;2022-11-25T10:37:08;12.10;;;7.20;;
41139;SDS011;26881;48.784;9.192;2022-11-25T10:42:34;13.90;;;8.17;;
41139;SDS011;26881;48.784;9.192;2022-11-25T10:48:01;12.50;;;8.07;;
41139;SDS011;26881;48.784;9.192;2022-11-25T10:53:30;13.03;;;7.63;;
41139;SDS011;26881;48.784;9.192;2022-11-25T10:58:53;14.80;;;7.63;;
41139;SDS011;26881;48.784;9.192;2022-11-25T11:04:14;14.88;;;8.07;;
41139;SDS011;26881;48.784;9.192;2022-11-25T11:09:39;12.25;;;8.65;;
41139;SDS011;26881;48.784;9.192;2022-11-25T11:15:13;14.65;;;7.65;;
41139;SDS011;26881;48.784;9.192;2022-11-25T11:20:44;17.03;;;7.37;;
41139;SDS011;26881;48.784;9.192;2022-11-25T11:26:09;15.52;;;7.45;;
41139;SDS011;26881;48.784;9.192;2022-11-25T11:31:48;17.55;;;7.90;;
41139;SDS011;26881;48.784;9.192;2022-11-25T11:37:37;20.13;;;8.20;;
41139;SDS011;26881;48.784;9.192;2022-11-25T11:49:08;13.55;;;8.32;;
41139;SDS011;26881;48.784;9.192;2022-11-25T11:54:57;12.10;;;7.30;;
41139;SDS011;26881;48.784;9.192;2022-11-25T12:00:24;11.93;;;6.60;;
41139;SDS011;26881;48.784;9.192;2022-11-25T12:05:47;12.40;;;5.32;;
41139;SDS011;26881;48.784;9.192;2022-11-25T12:11:19;9.82;;;4.38;;
41139;SDS011;26881;48.784;9.192;2022-11-25T12:16:47;11.57;;;4.75;;
41139;SDS011;26881;48.784;9.192;2022-11-25T12:27:41;16.92;;;7.60;;
41139;SDS011;26881;48.784;9.192;2022-11-25T12:33:09;15.38;;;8.43;;
41139;SDS011;26881;48.784;9.192;2022-11-25T12:38:59;18.90;;;10.10;;
41139;SDS011;26881;48.784;9.192;2022-11-25T12:49:53;13.23;;;6.55;;
41139;SDS011;26881;48.784;9.192;2022-11-25T12:55:17;13.65;;;7.75;;
41139;SDS011;26881;48.784;9.192;2022-11-25T13:00:52;19.83;;;8.75;;
41139;SDS011;26881;48.784;9.192;2022-11-25T13:06:25;17.33;;;7.55;;
41139;SDS011;26881;48.784;9.192;2022-11-25T13:17:31;21.10;;;7.45;;
41139;SDS011;26881;48.784;9.192;2022-11-25T13:23:03;16.83;;;7.33;;
41139;SDS011;26881;48.784;9.192;2022-11-25T13:33:57;20.55;;;9.27;;
41139;SDS011;26881;48.784;9.192;2022-11-25T13:45:00;14.77;;;6.10;;
41139;SDS011;26881;48.784;9.192;2022-11-25T13:50:22;15.00;;;5.00;;
41139;SDS011;26881;48.784;9.192;2022-11-25T14:01:54;13.15;;;4.10;;
41139;SDS011;26881;48.784;9.192;2022-11-25T14:08:00;9.18;;;3.47;;
41139;SDS011;26881;48.784;9.192;2022-11-25T14:19:53;9.75;;;3.47;;
41139;SDS011;26881;48.784;9.192;2022-11-25T14:25:23;10.35;;;3.50;;
41139;SDS011;26881;48.784;9.192;2022-11-25T14:30:51;10.00;;;2.72;;
41139;SDS011;26881;48.784;9.192;2022-11-25T14:36:29;9.80;;;2.38;;
41139;SDS011;26881;48.784;9.192;2022-11-25T14:41:59;11.68;;;2.35;;
41139;SDS011;26881;48.784;9.192;2022-11-25T14:47:25;10.43;;;2.78;;
41139;SDS011;26881;48.784;9.192;2022-11-25T14:52:48;14.60;;;2.80;;
41139;SDS011;26881;48.784;9.192;2022-11-25T14:58:11;10.25;;;2.67;;
41139;SDS011;26881;48.784;9.192;2022-11-25T15:03:34;16.58;;;2.65;;
41139;SDS011;26881;48.784;9.192;2022-11-25T15:08:57;13.05;;;2.88;;
41139;SDS011;26881;48.784;9.192;2022-11-25T15:14:25;13.10;;;2.63;;
41139;SDS011;26881;48.784;9.192;2022-11-25T15:19:49;7.10;;;2.40;;
41139;SDS011;26881;48.784;9.192;2022-11-25T15:25:13;14.05;;;2.80;;
41139;SDS011;26881;48.784;9.192;2022-11-25T15:30:36;11.02;;;2.67;;
41139;SDS011;26881;48.784;9.192;2022-11-25T15:35:58;13.85;;;2.53;;
41139;SDS011;26881;48.784;9.192;2022-11-25T15:41:32;12.10;;;2.40;;
41139;SDS011;26881;48.784;9.192;2022-11-25T15:52:19;12.05;;;2.92;;
41139;SDS011;26881;48.784;9.192;2022-11-25T15:57:44;9.73;;;3.35;;
41139;SDS011;26881;48.784;9.192;2022-11-25T16:03:20;9.88;;;3.40;;
41139;SDS011;26881;48.784;9.192;2022-11-25T16:08:50;10.52;;;3.35;;
41139;SDS011;26881;48.784;9.192;2022-11-25T16:19:44;14.23;;;3.38;;
41139;SDS011;26881;48.784;9.192;2022-11-25T16:25:08;14.60;;;3.22;;
41139;SDS011;26881;48.784;9.192;2022-11-25T16:30:30;11.23;;;3.60;;
41139;SDS011;26881;48.784;9.192;2022-11-25T16:35:55;17.38;;;3.50;;
41139;SDS011;26881;48.784;9.192;2022-11-25T16:41:18;7.45;;;2.80;;
41139;SDS011;26881;48.784;9.192;2022-11-25T16:46:43;12.70;;;3.40;;
41139;SDS011;26881;48.784;9.192;2022-11-25T16:52:05;10.88;;;2.67;;
41139;SDS011;26881;48.784;9.192;2022-11-25T16:57:27;10.38;;;3.33;;
41139;SDS011;26881;48.784;9.192;2022-11-25T17:02:49;12.35;;;3.75;;
41139;SDS011;26881;48.784;9.192;2022-11-25T17:08:11;14.07;;;4.28;;
41139;SDS011;26881;48.784;9.192;2022-11-25T17:13:33;14.13;;;3.67;;
41139;SDS011;26881;48.784;9.192;2022-11-25T17:18:59;12.50;;;3.50;;
41139;SDS011;26881;48.784;9.192;2022-11-25T17:24:22;12.50;;;3.65;;
41139;SDS011;26881;48.784;9.192;2022-11-25T17:29:45;14.35;;;3.47;;
41139;SDS011;26881;48.784;9.192;2022-11-25T17:35:15;12.80;;;3.60;;
41139;SDS011;26881;48.784;9.192;2022-11-25T17:40:40;10.87;;;3.50;;
41139;SDS011;26881;48.784;9.192;2022-11-25T17:46:03;12.50;;;3.90;;
41139;SDS011;26881;48.784;9.192;2022-11-25T17:51:25;8.35;;;3.35;;
41139;SDS011;26881;48.784;9.192;2022-11-25T17:56:47;13.40;;;4.30;;
41139;SDS011;26881;48.784;9.192;2022-11-25T18:02:16;13.57;;;4.05;;
41139;SDS011;26881;48.784;9.192;2022-11-25T18:07:41;16.27;;;4.20;;
41139;SDS011;26881;48.784;9.192;2022-11-25T18:13:04;22.20;;;4.90;;
41139;SDS011;26881;48.784;9.192;2022-11-25T18:18:26;13.07;;;4.35;;
41139;SDS011;26881;48.784;9.192;2022-11-25T18:23:48;15.23;;;4.63;;
41139;SDS011;26881;48.784;9.192;2022-11-25T18:29:14;10.70;;;4.10;;
41139;SDS011;26881;48.784;9.192;2022-11-25T18:34:40;13.13;;;4.53;;
41139;SDS011;26881;48.784;9.192;2022-11-25T18:40:02;15.57;;;4.82;;
41139;SDS011;26881;48.784;9.192;2022-11-25T18:45:25;12.23;;;4.15;;
41139;SDS011;26881;48.784;9.192;2022-11-25T18:50:50;15.63;;;5.05;;
41139;SDS011;26881;48.784;9.192;2022-11-25T18:56:13;13.03;;;4.87;;
41139;SDS011;26881;48.784;9.192;2022-11-25T19:01:38;15.38;;;5.38;;
41139;SDS011;26881;48.784;9.192;2022-11-25T19:07:00;18.30;;;5.72;;
41139;SDS011;26881;48.784;9.192;2022-11-25T19:12:22;14.05;;;4.50;;
41139;SDS011;26881;48.784;9.192;2022-11-25T19:17:44;15.07;;;4.80;;
41139;SDS011;26881;48.784;9.192;2022-11-25T19:23:15;13.52;;;5.10;;
41139;SDS011;26881;48.784;9.192;2022-11-25T19:28:44;14.10;;;5.20;;
41139;SDS011;26881;48.784;9.192;2022-11-25T19:34:14;13.02;;;5.38;;
41139;SDS011;26881;48.784;9.192;2022-11-25T19:39:48;14.30;;;6.00;;
41139;SDS011;26881;48.784;9.192;2022-11-25T19:45:12;19.17;;;5.07;;
41139;SDS011;26881;48.784;9.192;2022-11-25T19:50:36;15.90;;;5.65;;
41139;SDS011;26881;48.784;9.192;2022-11-25T19:55:59;15.65;;;4.70;;
41139;SDS011;26881;48.784;9.192;2022-11-25T20:01:26;15.87;;;5.07;;
41139;SDS011;26881;48.784;9.192;2022-11-25T20:06:53;17.27;;;5.00;;
41139;SDS011;26881;48.784;9.192;2022-11-25T20:12:25;14.85;;;5.30;;
41139;SDS011;26881;48.784;9.192;2022-11-25T20:17:52;16.52;;;5.25;;
41139;SDS011;26881;48.784;9.192;2022-11-25T20:23:31;17.70;;;7.37;;
41139;SDS011;26881;48.784;9.192;2022-11-25T20:29:08;16.23;;;6.35;;
41139;SDS011;26881;48.784;9.192;2022-11-25T20:34:36;14.10;;;6.20;;
41139;SDS011;26881;48.784;9.192;2022-11-25T20:40:02;15.07;;;5.05;;
41139;SDS011;26881;48.784;9.192;2022-11-25T20:45:25;16.08;;;4.63;;
41139;SDS011;26881;48.784;9.192;2022-11-25T20:50:47;9.80;;;4.03;;
41139;SDS011;26881;48.784;9.192;2022-11-25T20:56:09;14.37;;;4.73;;
41139;SDS011;26881;48.784;9.192;2022-11-25T21:01:34;12.63;;;4.63;;
41139;SDS011;26881;48.784;9.192;2022-11-25T21:06:56;25.65;;;8.50;;
41139;SDS011;26881;48.784;9.192;2022-11-25T21:12:18;15.30;;;6.60;;
41139;SDS011;26881;48.784;9.192;2022-11-25T21:17:40;16.03;;;5.10;;
41139;SDS011;26881;48.784;9.192;2022-11-25T21:23:02;15.30;;;5.30;;
41139;SDS011;26881;48.784;9.192;2022-11-25T21:28:26;16.38;;;5.15;;
41139;SDS011;26881;48.784;9.192;2022-11-25T21:33:49;14.57;;;5.10;;
41139;SDS011;26881;48.784;9.192;2022-11-25T21:39:44;17.87;;;5.77;;
41139;SDS011;26881;48.784;9.192;2022-11-25T21:44:59;16.03;;;5.33;;
41139;SDS011;26881;48.784;9.192;2022-11-25T21:50:21;16.60;;;5.83;;
41139;SDS011;26881;48.784;9.192;2022-11-25T21:55:44;13.60;;;5.37;;
41139;SDS011;26881;48.784;9.192;2022-11-25T22:01:07;14.77;;;5.53;;
41139;SDS011;26881;48.784;9.192;2022-11-25T22:06:32;14.00;;;4.67;;
41139;SDS011;26881;48.784;9.192;2022-11-25T22:11:54;18.97;;;5.40;;
41139;SDS011;26881;48.784;9.192;2022-11-25T22:17:16;15.50;;;5.17;;
41139;SDS011;26881;48.784;9.192;2022-11-25T22:22:38;13.53;;;5.77;;
41139;SDS011;26881;48.784;9.192;2022-11-25T22:28:00;12.93;;;5.03;;
41139;SDS011;26881;48.784;9.192;2022-11-25T22:33:28;11.53;;;4.77;;
41139;SDS011;26881;48.784;9.192;2022-11-25T22:38:52;14.03;;;4.67;;
41139;SDS011;26881;48.784;9.192;2022-11-25T22:44:23;16.93;;;4.50;;
41139;SDS011;26881;48.784;9.192;2022-11-25T22:49:52;13.63;;;4.70;;
41139;SDS011;26881;48.784;9.192;2022-11-25T22:55:24;15.43;;;5.07;;
41139;SDS011;26881;48.784;9.192;2022-11-25T23:00:48;10.67;;;4.73;;
41139;SDS011;26881;48.784;9.192;2022-11-25T23:06:10;13.27;;;5.30;;
41139;SDS011;26881;48.784;9.192;2022-11-25T23:11:33;19.97;;;6.37;;
41139;SDS011;26881;48.784;9.192;2022-11-25T23:17:00;26.93;;;7.23;;
41139;SDS011;26881;48.784;9.192;2022-11-25T23:22:22;15.95;;;6.30;;
41139;SDS011;26881;48.784;9.192;2022-11-25T23:27:44;15.35;;;6.53;;
41139;SDS011;26881;48.784;9.192;2022-11-25T23:33:09;15.73;;;6.03;;
41139;SDS011;26881;48.784;9.192;2022-11-25T23:38:42;14.50;;;5.57;;
41139;SDS011;26881;48.784;9.192;2022-11-25T23:44:14;16.03;;;6.03;;
41139;SDS011;26881;48.784;9.192;2022-11-25T23:49:47;11.63;;;5.13;;
41139;SDS011;26881;48.784;9.192;2022-11-25T23:55:12;11.50;;;4.63;;
